sensor_id;sensor_type;location;lat;lon;timestamp;temperature;humidity
57857;DHT22;43683;48.650;9.290;2023-04-03T00:01:10;3.70;80.40
57857;DHT22;43683;48.650;9.290;2023-04-03T00:03:36;3.70;80.40
57857;DHT22;43683;48.650;9.290;2023-04-03T00:06:03;3.70;80.40
57857;DHT22;43683;48.650;9.290;2023-04-03T00:08:29;3.60;80.30
57857;DHT22;43683;48.650;9.290;2023-04-03T00:10:56;3.60;80.30
57857;DHT22;43683;48.650;9.290;2023-04-03T00:13:22;3.60;80.30
57857;DHT22;43683;48.650;9.290;2023-04-03T00:15:48;3.60;80.30
57857;DHT22;43683;48.650;9.290;2023-04-03T00:18:14;3.60;80.40
57857;DHT22;43683;48.650;9.290;2023-04-03T00:20:39;3.50;80.40
57857;DHT22;43683;48.650;9.290;2023-04-03T00:23:05;3.50;80.60
57857;DHT22;43683;48.650;9.290;2023-04-03T00:25:30;3.40;80.60
57857;DHT22;43683;48.650;9.290;2023-04-03T00:27:56;3.30;80.80
57857;DHT22;43683;48.650;9.290;2023-04-03T00:30:23;3.30;80.90
57857;DHT22;43683;48.650;9.290;2023-04-03T00:32:50;3.20;81.00
57857;DHT22;43683;48.650;9.290;2023-04-03T00:35:16;3.20;81.00
57857;DHT22;43683;48.650;9.290;2023-04-03T00:37:43;3.20;81.00
57857;DHT22;43683;48.650;9.290;2023-04-03T00:40:09;3.20;80.90
57857;DHT22;43683;48.650;9.290;2023-04-03T00:42:40;3.20;80.80
57857;DHT22;43683;48.650;9.290;2023-04-03T00:47:31;3.30;80.70
57857;DHT22;43683;48.650;9.290;2023-04-03T00:49:57;3.30;80.70
57857;DHT22;43683;48.650;9.290;2023-04-03T00:52:26;3.30;80.60
57857;DHT22;43683;48.650;9.290;2023-04-03T00:54:56;3.30;80.50
57857;DHT22;43683;48.650;9.290;2023-04-03T00:57:23;3.30;80.40
57857;DHT22;43683;48.650;9.290;2023-04-03T00:59:54;3.30;80.40
57857;DHT22;43683;48.650;9.290;2023-04-03T01:02:20;3.40;80.50
57857;DHT22;43683;48.650;9.290;2023-04-03T01:04:46;3.40;80.40
57857;DHT22;43683;48.650;9.290;2023-04-03T01:07:15;3.40;80.30
57857;DHT22;43683;48.650;9.290;2023-04-03T01:09:42;3.40;80.40
57857;DHT22;43683;48.650;9.290;2023-04-03T01:12:25;3.40;80.30
57857;DHT22;43683;48.650;9.290;2023-04-03T01:14:58;3.40;80.30
57857;DHT22;43683;48.650;9.290;2023-04-03T01:17:40;3.40;80.40
57857;DHT22;43683;48.650;9.290;2023-04-03T01:20:31;3.40;80.30
57857;DHT22;43683;48.650;9.290;2023-04-03T01:25:37;3.30;80.20
57857;DHT22;43683;48.650;9.290;2023-04-03T01:28:07;3.30;80.30
57857;DHT22;43683;48.650;9.290;2023-04-03T01:30:59;3.30;80.40
57857;DHT22;43683;48.650;9.290;2023-04-03T01:33:26;3.30;80.40
57857;DHT22;43683;48.650;9.290;2023-04-03T01:35:51;3.20;80.40
57857;DHT22;43683;48.650;9.290;2023-04-03T01:38:17;3.20;80.50
57857;DHT22;43683;48.650;9.290;2023-04-03T01:40:43;3.20;80.60
57857;DHT22;43683;48.650;9.290;2023-04-03T01:43:08;3.10;80.60
57857;DHT22;43683;48.650;9.290;2023-04-03T01:45:34;3.10;80.70
57857;DHT22;43683;48.650;9.290;2023-04-03T01:48:00;3.10;80.80
57857;DHT22;43683;48.650;9.290;2023-04-03T01:50:25;3.00;80.70
57857;DHT22;43683;48.650;9.290;2023-04-03T01:52:51;3.00;80.70
57857;DHT22;43683;48.650;9.290;2023-04-03T01:55:16;3.00;80.80
57857;DHT22;43683;48.650;9.290;2023-04-03T01:57:42;3.00;80.80
57857;DHT22;43683;48.650;9.290;2023-04-03T02:00:08;3.00;80.80
57857;DHT22;43683;48.650;9.290;2023-04-03T02:02:34;3.00;81.50
57857;DHT22;43683;48.650;9.290;2023-04-03T02:05:00;3.00;80.80
57857;DHT22;43683;48.650;9.290;2023-04-03T02:07:25;3.00;80.70
57857;DHT22;43683;48.650;9.290;2023-04-03T02:09:51;3.00;80.60
57857;DHT22;43683;48.650;9.290;2023-04-03T02:12:17;3.00;80.60
57857;DHT22;43683;48.650;9.290;2023-04-03T02:14:42;3.00;80.50
57857;DHT22;43683;48.650;9.290;2023-04-03T02:17:08;3.10;80.50
57857;DHT22;43683;48.650;9.290;2023-04-03T02:19:36;3.10;80.40
57857;DHT22;43683;48.650;9.290;2023-04-03T02:22:03;3.10;80.30
57857;DHT22;43683;48.650;9.290;2023-04-03T02:24:29;3.10;80.30
57857;DHT22;43683;48.650;9.290;2023-04-03T02:26:54;3.10;80.20
57857;DHT22;43683;48.650;9.290;2023-04-03T02:29:20;3.10;80.20
57857;DHT22;43683;48.650;9.290;2023-04-03T02:31:46;3.10;80.20
57857;DHT22;43683;48.650;9.290;2023-04-03T02:34:11;3.10;80.20
57857;DHT22;43683;48.650;9.290;2023-04-03T02:36:37;3.20;80.30
57857;DHT22;43683;48.650;9.290;2023-04-03T02:39:03;3.10;80.20
57857;DHT22;43683;48.650;9.290;2023-04-03T02:41:29;3.10;80.10
57857;DHT22;43683;48.650;9.290;2023-04-03T02:44:04;3.20;80.10
57857;DHT22;43683;48.650;9.290;2023-04-03T02:46:30;3.20;80.10
57857;DHT22;43683;48.650;9.290;2023-04-03T02:48:55;3.20;80.10
57857;DHT22;43683;48.650;9.290;2023-04-03T02:51:21;3.20;80.00
57857;DHT22;43683;48.650;9.290;2023-04-03T02:53:48;3.20;80.00
57857;DHT22;43683;48.650;9.290;2023-04-03T02:56:14;3.20;79.80
57857;DHT22;43683;48.650;9.290;2023-04-03T02:58:39;3.20;79.80
57857;DHT22;43683;48.650;9.290;2023-04-03T03:01:05;3.20;79.80
57857;DHT22;43683;48.650;9.290;2023-04-03T03:03:31;3.20;79.80
57857;DHT22;43683;48.650;9.290;2023-04-03T03:06:08;3.20;79.80
57857;DHT22;43683;48.650;9.290;2023-04-03T03:08:34;3.20;79.70
57857;DHT22;43683;48.650;9.290;2023-04-03T03:11:00;3.20;79.70
57857;DHT22;43683;48.650;9.290;2023-04-03T03:13:26;3.20;79.70
57857;DHT22;43683;48.650;9.290;2023-04-03T03:15:52;3.20;79.70
57857;DHT22;43683;48.650;9.290;2023-04-03T03:18:17;3.20;79.70
57857;DHT22;43683;48.650;9.290;2023-04-03T03:20:43;3.20;79.70
57857;DHT22;43683;48.650;9.290;2023-04-03T03:23:08;3.20;79.70
57857;DHT22;43683;48.650;9.290;2023-04-03T03:25:38;3.20;79.70
57857;DHT22;43683;48.650;9.290;2023-04-03T03:28:04;3.20;79.70
57857;DHT22;43683;48.650;9.290;2023-04-03T03:30:30;3.20;79.70
57857;DHT22;43683;48.650;9.290;2023-04-03T03:32:55;3.20;79.80
57857;DHT22;43683;48.650;9.290;2023-04-03T03:35:21;3.20;79.70
57857;DHT22;43683;48.650;9.290;2023-04-03T03:37:46;3.20;79.70
57857;DHT22;43683;48.650;9.290;2023-04-03T03:40:12;3.20;79.70
57857;DHT22;43683;48.650;9.290;2023-04-03T03:42:38;3.20;79.70
57857;DHT22;43683;48.650;9.290;2023-04-03T03:45:04;3.20;79.70
57857;DHT22;43683;48.650;9.290;2023-04-03T03:47:30;3.20;79.70
57857;DHT22;43683;48.650;9.290;2023-04-03T03:49:55;3.20;79.70
57857;DHT22;43683;48.650;9.290;2023-04-03T03:52:21;3.20;79.60
57857;DHT22;43683;48.650;9.290;2023-04-03T03:54:46;3.20;79.60
57857;DHT22;43683;48.650;9.290;2023-04-03T03:57:12;3.20;79.60
57857;DHT22;43683;48.650;9.290;2023-04-03T03:59:37;3.20;79.60
57857;DHT22;43683;48.650;9.290;2023-04-03T04:02:03;3.30;79.60
57857;DHT22;43683;48.650;9.290;2023-04-03T04:04:29;3.20;79.50
57857;DHT22;43683;48.650;9.290;2023-04-03T04:06:54;3.30;79.40
57857;DHT22;43683;48.650;9.290;2023-04-03T04:09:20;3.30;79.40
57857;DHT22;43683;48.650;9.290;2023-04-03T04:11:45;3.30;79.30
57857;DHT22;43683;48.650;9.290;2023-04-03T04:14:11;3.30;79.30
57857;DHT22;43683;48.650;9.290;2023-04-03T04:16:38;3.30;79.30
57857;DHT22;43683;48.650;9.290;2023-04-03T04:19:04;3.30;79.20
57857;DHT22;43683;48.650;9.290;2023-04-03T04:21:29;3.30;79.20
57857;DHT22;43683;48.650;9.290;2023-04-03T04:23:55;3.30;79.10
57857;DHT22;43683;48.650;9.290;2023-04-03T04:26:20;3.30;79.00
57857;DHT22;43683;48.650;9.290;2023-04-03T04:28:46;3.40;79.00
57857;DHT22;43683;48.650;9.290;2023-04-03T04:31:12;3.40;78.90
57857;DHT22;43683;48.650;9.290;2023-04-03T04:33:37;3.40;78.90
57857;DHT22;43683;48.650;9.290;2023-04-03T04:36:03;3.30;78.70
57857;DHT22;43683;48.650;9.290;2023-04-03T04:38:28;3.40;78.70
57857;DHT22;43683;48.650;9.290;2023-04-03T04:40:54;3.40;78.70
57857;DHT22;43683;48.650;9.290;2023-04-03T04:43:19;3.40;78.60
57857;DHT22;43683;48.650;9.290;2023-04-03T04:45:45;3.40;78.60
57857;DHT22;43683;48.650;9.290;2023-04-03T04:48:10;3.40;78.40
57857;DHT22;43683;48.650;9.290;2023-04-03T04:50:36;3.40;78.30
57857;DHT22;43683;48.650;9.290;2023-04-03T04:53:02;3.40;78.20
57857;DHT22;43683;48.650;9.290;2023-04-03T04:55:27;3.40;78.20
57857;DHT22;43683;48.650;9.290;2023-04-03T04:57:53;3.40;78.10
57857;DHT22;43683;48.650;9.290;2023-04-03T05:00:18;3.40;78.10
57857;DHT22;43683;48.650;9.290;2023-04-03T05:02:44;3.40;77.90
57857;DHT22;43683;48.650;9.290;2023-04-03T05:05:10;3.40;77.90
57857;DHT22;43683;48.650;9.290;2023-04-03T05:07:35;3.40;77.90
57857;DHT22;43683;48.650;9.290;2023-04-03T05:10:02;3.40;77.90
57857;DHT22;43683;48.650;9.290;2023-04-03T05:12:29;3.40;77.70
57857;DHT22;43683;48.650;9.290;2023-04-03T05:14:54;3.50;77.50
57857;DHT22;43683;48.650;9.290;2023-04-03T05:17:20;3.50;77.30
57857;DHT22;43683;48.650;9.290;2023-04-03T05:19:46;3.50;77.20
57857;DHT22;43683;48.650;9.290;2023-04-03T05:22:11;3.50;77.10
57857;DHT22;43683;48.650;9.290;2023-04-03T05:24:37;3.50;77.10
57857;DHT22;43683;48.650;9.290;2023-04-03T05:27:02;3.60;77.00
57857;DHT22;43683;48.650;9.290;2023-04-03T05:29:28;3.50;76.90
57857;DHT22;43683;48.650;9.290;2023-04-03T05:31:53;3.60;76.80
57857;DHT22;43683;48.650;9.290;2023-04-03T05:34:19;3.60;76.70
57857;DHT22;43683;48.650;9.290;2023-04-03T05:36:45;3.60;76.70
57857;DHT22;43683;48.650;9.290;2023-04-03T05:39:10;3.50;77.10
57857;DHT22;43683;48.650;9.290;2023-04-03T05:41:36;3.30;77.40
57857;DHT22;43683;48.650;9.290;2023-04-03T05:44:01;3.20;77.40
57857;DHT22;43683;48.650;9.290;2023-04-03T05:46:27;3.30;77.20
57857;DHT22;43683;48.650;9.290;2023-04-03T05:48:52;3.40;77.00
57857;DHT22;43683;48.650;9.290;2023-04-03T05:51:22;3.50;76.70
57857;DHT22;43683;48.650;9.290;2023-04-03T05:53:58;3.60;76.50
57857;DHT22;43683;48.650;9.290;2023-04-03T05:56:25;3.70;76.40
57857;DHT22;43683;48.650;9.290;2023-04-03T05:58:51;3.70;76.20
57857;DHT22;43683;48.650;9.290;2023-04-03T06:01:16;3.80;76.00
57857;DHT22;43683;48.650;9.290;2023-04-03T06:03:42;3.90;75.90
57857;DHT22;43683;48.650;9.290;2023-04-03T06:06:07;3.90;75.70
57857;DHT22;43683;48.650;9.290;2023-04-03T06:08:33;3.90;75.50
57857;DHT22;43683;48.650;9.290;2023-04-03T06:11:00;4.00;75.50
57857;DHT22;43683;48.650;9.290;2023-04-03T06:13:27;4.00;75.40
57857;DHT22;43683;48.650;9.290;2023-04-03T06:15:52;4.00;75.30
57857;DHT22;43683;48.650;9.290;2023-04-03T06:18:18;4.10;75.20
57857;DHT22;43683;48.650;9.290;2023-04-03T06:20:43;4.20;75.00
57857;DHT22;43683;48.650;9.290;2023-04-03T06:23:09;4.20;74.80
57857;DHT22;43683;48.650;9.290;2023-04-03T06:25:36;4.30;74.60
57857;DHT22;43683;48.650;9.290;2023-04-03T06:28:01;4.30;74.50
57857;DHT22;43683;48.650;9.290;2023-04-03T06:30:27;4.30;74.40
57857;DHT22;43683;48.650;9.290;2023-04-03T06:32:52;4.40;74.30
57857;DHT22;43683;48.650;9.290;2023-04-03T06:35:18;4.40;74.10
57857;DHT22;43683;48.650;9.290;2023-04-03T06:37:43;4.40;74.00
57857;DHT22;43683;48.650;9.290;2023-04-03T06:40:17;4.60;73.90
57857;DHT22;43683;48.650;9.290;2023-04-03T06:42:43;4.70;73.70
57857;DHT22;43683;48.650;9.290;2023-04-03T06:45:09;4.70;73.60
57857;DHT22;43683;48.650;9.290;2023-04-03T06:47:36;4.70;73.60
57857;DHT22;43683;48.650;9.290;2023-04-03T06:50:02;4.70;73.50
57857;DHT22;43683;48.650;9.290;2023-04-03T06:52:27;4.70;73.40
57857;DHT22;43683;48.650;9.290;2023-04-03T06:54:53;4.70;73.30
57857;DHT22;43683;48.650;9.290;2023-04-03T06:57:22;4.80;73.10
57857;DHT22;43683;48.650;9.290;2023-04-03T06:59:48;4.90;73.00
57857;DHT22;43683;48.650;9.290;2023-04-03T07:02:13;5.20;72.60
57857;DHT22;43683;48.650;9.290;2023-04-03T07:04:39;5.30;72.20
57857;DHT22;43683;48.650;9.290;2023-04-03T07:07:04;5.40;72.00
57857;DHT22;43683;48.650;9.290;2023-04-03T07:09:30;5.50;71.70
57857;DHT22;43683;48.650;9.290;2023-04-03T07:11:55;5.70;71.50
57857;DHT22;43683;48.650;9.290;2023-04-03T07:14:21;5.80;71.20
57857;DHT22;43683;48.650;9.290;2023-04-03T07:16:46;5.80;71.30
57857;DHT22;43683;48.650;9.290;2023-04-03T07:19:12;5.70;71.50
57857;DHT22;43683;48.650;9.290;2023-04-03T07:21:37;5.70;71.50
57857;DHT22;43683;48.650;9.290;2023-04-03T07:24:03;5.70;71.40
57857;DHT22;43683;48.650;9.290;2023-04-03T07:26:29;5.70;71.30
57857;DHT22;43683;48.650;9.290;2023-04-03T07:28:54;5.80;71.20
57857;DHT22;43683;48.650;9.290;2023-04-03T07:31:20;5.90;70.90
57857;DHT22;43683;48.650;9.290;2023-04-03T07:33:45;6.00;70.60
57857;DHT22;43683;48.650;9.290;2023-04-03T07:36:16;6.20;70.40
57857;DHT22;43683;48.650;9.290;2023-04-03T07:38:42;6.20;70.20
57857;DHT22;43683;48.650;9.290;2023-04-03T07:41:12;6.40;70.10
57857;DHT22;43683;48.650;9.290;2023-04-03T07:43:38;6.50;69.80
57857;DHT22;43683;48.650;9.290;2023-04-03T07:46:05;6.60;69.70
57857;DHT22;43683;48.650;9.290;2023-04-03T07:48:30;6.80;69.50
57857;DHT22;43683;48.650;9.290;2023-04-03T07:50:59;7.00;69.20
57857;DHT22;43683;48.650;9.290;2023-04-03T07:53:25;7.10;68.80
57857;DHT22;43683;48.650;9.290;2023-04-03T07:55:51;7.10;68.90
57857;DHT22;43683;48.650;9.290;2023-04-03T07:58:20;7.00;69.00
57857;DHT22;43683;48.650;9.290;2023-04-03T08:00:46;7.30;68.70
57857;DHT22;43683;48.650;9.290;2023-04-03T08:03:13;7.50;68.40
57857;DHT22;43683;48.650;9.290;2023-04-03T08:05:40;7.60;68.40
57857;DHT22;43683;48.650;9.290;2023-04-03T08:08:07;7.60;68.40
57857;DHT22;43683;48.650;9.290;2023-04-03T08:10:33;7.70;68.30
57857;DHT22;43683;48.650;9.290;2023-04-03T08:12:59;7.80;68.20
57857;DHT22;43683;48.650;9.290;2023-04-03T08:15:25;7.80;68.00
57857;DHT22;43683;48.650;9.290;2023-04-03T08:17:50;7.90;67.90
57857;DHT22;43683;48.650;9.290;2023-04-03T08:20:17;7.90;67.70
57857;DHT22;43683;48.650;9.290;2023-04-03T08:22:42;8.10;67.40
57857;DHT22;43683;48.650;9.290;2023-04-03T08:25:08;8.30;67.10
57857;DHT22;43683;48.650;9.290;2023-04-03T08:27:34;8.40;67.00
57857;DHT22;43683;48.650;9.290;2023-04-03T08:29:59;8.30;66.70
57857;DHT22;43683;48.650;9.290;2023-04-03T08:32:25;8.20;67.20
57857;DHT22;43683;48.650;9.290;2023-04-03T08:34:51;8.00;66.90
57857;DHT22;43683;48.650;9.290;2023-04-03T08:37:17;7.90;67.20
57857;DHT22;43683;48.650;9.290;2023-04-03T08:39:43;7.80;67.40
57857;DHT22;43683;48.650;9.290;2023-04-03T08:47:58;7.70;66.90
57857;DHT22;43683;48.650;9.290;2023-04-03T08:50:37;7.80;66.50
57857;DHT22;43683;48.650;9.290;2023-04-03T08:53:05;7.90;66.10
57857;DHT22;43683;48.650;9.290;2023-04-03T08:55:43;8.20;65.90
57857;DHT22;43683;48.650;9.290;2023-04-03T08:58:18;8.40;65.20
57857;DHT22;43683;48.650;9.290;2023-04-03T09:01:00;8.60;64.90
57857;DHT22;43683;48.650;9.290;2023-04-03T09:03:32;8.40;64.40
57857;DHT22;43683;48.650;9.290;2023-04-03T09:06:21;8.60;64.50
57857;DHT22;43683;48.650;9.290;2023-04-03T09:12:05;8.80;64.20
57857;DHT22;43683;48.650;9.290;2023-04-03T09:14:58;8.60;64.70
57857;DHT22;43683;48.650;9.290;2023-04-03T09:17:42;8.30;65.00
57857;DHT22;43683;48.650;9.290;2023-04-03T09:20:19;7.90;65.50
57857;DHT22;43683;48.650;9.290;2023-04-03T09:22:46;7.90;65.40
57857;DHT22;43683;48.650;9.290;2023-04-03T09:25:23;8.00;65.00
57857;DHT22;43683;48.650;9.290;2023-04-03T09:27:51;8.00;64.60
57857;DHT22;43683;48.650;9.290;2023-04-03T09:30:22;8.20;64.50
57857;DHT22;43683;48.650;9.290;2023-04-03T09:32:54;8.10;64.30
57857;DHT22;43683;48.650;9.290;2023-04-03T09:35:28;8.00;64.30
57857;DHT22;43683;48.650;9.290;2023-04-03T09:37:59;8.00;64.20
57857;DHT22;43683;48.650;9.290;2023-04-03T09:42:55;8.00;63.40
57857;DHT22;43683;48.650;9.290;2023-04-03T09:45:30;8.20;63.20
57857;DHT22;43683;48.650;9.290;2023-04-03T09:53:45;8.60;62.00
57857;DHT22;43683;48.650;9.290;2023-04-03T09:56:22;8.70;61.50
57857;DHT22;43683;48.650;9.290;2023-04-03T09:58:51;8.80;61.50
57857;DHT22;43683;48.650;9.290;2023-04-03T10:01:34;8.80;61.60
57857;DHT22;43683;48.650;9.290;2023-04-03T10:04:19;8.80;61.00
57857;DHT22;43683;48.650;9.290;2023-04-03T10:06:53;8.70;60.80
57857;DHT22;43683;48.650;9.290;2023-04-03T10:09:22;8.70;60.80
57857;DHT22;43683;48.650;9.290;2023-04-03T10:14:34;9.00;59.90
57857;DHT22;43683;48.650;9.290;2023-04-03T10:17:17;8.80;59.70
57857;DHT22;43683;48.650;9.290;2023-04-03T10:20:02;8.60;58.50
57857;DHT22;43683;48.650;9.290;2023-04-03T10:22:51;8.70;59.00
57857;DHT22;43683;48.650;9.290;2023-04-03T10:25:41;8.90;58.60
57857;DHT22;43683;48.650;9.290;2023-04-03T10:28:09;9.00;57.90
57857;DHT22;43683;48.650;9.290;2023-04-03T10:30:46;9.20;57.70
57857;DHT22;43683;48.650;9.290;2023-04-03T10:33:45;9.30;56.90
57857;DHT22;43683;48.650;9.290;2023-04-03T10:36:24;9.40;56.40
57857;DHT22;43683;48.650;9.290;2023-04-03T10:38:59;9.40;56.70
57857;DHT22;43683;48.650;9.290;2023-04-03T10:47:07;9.40;56.60
57857;DHT22;43683;48.650;9.290;2023-04-03T10:50:12;9.10;57.30
57857;DHT22;43683;48.650;9.290;2023-04-03T10:52:54;9.00;57.30
57857;DHT22;43683;48.650;9.290;2023-04-03T10:55:38;8.70;57.20
57857;DHT22;43683;48.650;9.290;2023-04-03T11:01:02;8.60;58.20
57857;DHT22;43683;48.650;9.290;2023-04-03T11:03:34;8.50;57.50
57857;DHT22;43683;48.650;9.290;2023-04-03T11:06:02;8.50;57.60
57857;DHT22;43683;48.650;9.290;2023-04-03T11:08:48;8.40;57.70
57857;DHT22;43683;48.650;9.290;2023-04-03T11:11:27;8.50;57.20
57857;DHT22;43683;48.650;9.290;2023-04-03T11:14:00;8.60;57.20
57857;DHT22;43683;48.650;9.290;2023-04-03T11:16:30;8.70;56.90
57857;DHT22;43683;48.650;9.290;2023-04-03T11:19:14;8.60;57.10
57857;DHT22;43683;48.650;9.290;2023-04-03T11:24:36;8.40;57.60
57857;DHT22;43683;48.650;9.290;2023-04-03T11:27:05;8.30;58.00
57857;DHT22;43683;48.650;9.290;2023-04-03T11:29:34;8.20;57.90
57857;DHT22;43683;48.650;9.290;2023-04-03T11:32:21;8.40;57.80
57857;DHT22;43683;48.650;9.290;2023-04-03T11:34:56;8.60;57.40
57857;DHT22;43683;48.650;9.290;2023-04-03T11:37:38;8.90;56.90
57857;DHT22;43683;48.650;9.290;2023-04-03T11:40:26;9.10;56.60
57857;DHT22;43683;48.650;9.290;2023-04-03T11:43:02;9.20;56.60
57857;DHT22;43683;48.650;9.290;2023-04-03T11:50:47;8.70;57.00
57857;DHT22;43683;48.650;9.290;2023-04-03T11:55:45;8.60;57.30
57857;DHT22;43683;48.650;9.290;2023-04-03T11:58:19;8.30;57.40
57857;DHT22;43683;48.650;9.290;2023-04-03T12:08:44;7.60;58.10
57857;DHT22;43683;48.650;9.290;2023-04-03T12:14:03;7.70;57.90
57857;DHT22;43683;48.650;9.290;2023-04-03T12:29:45;9.10;54.90
57857;DHT22;43683;48.650;9.290;2023-04-03T12:35:27;9.40;54.70
57857;DHT22;43683;48.650;9.290;2023-04-03T12:46:43;8.10;56.40
57857;DHT22;43683;48.650;9.290;2023-04-03T12:49:43;8.10;56.50
57857;DHT22;43683;48.650;9.290;2023-04-03T12:52:19;8.20;56.20
57857;DHT22;43683;48.650;9.290;2023-04-03T12:54:48;8.30;55.90
57857;DHT22;43683;48.650;9.290;2023-04-03T12:57:20;8.50;55.60
57857;DHT22;43683;48.650;9.290;2023-04-03T12:59:46;8.70;55.10
57857;DHT22;43683;48.650;9.290;2023-04-03T13:02:32;8.80;54.70
57857;DHT22;43683;48.650;9.290;2023-04-03T13:05:09;8.80;53.90
57857;DHT22;43683;48.650;9.290;2023-04-03T13:07:39;9.10;54.10
57857;DHT22;43683;48.650;9.290;2023-04-03T13:12:58;9.30;53.80
57857;DHT22;43683;48.650;9.290;2023-04-03T13:15:29;9.40;53.60
57857;DHT22;43683;48.650;9.290;2023-04-03T13:17:56;9.60;53.70
57857;DHT22;43683;48.650;9.290;2023-04-03T13:20:33;9.60;53.80
57857;DHT22;43683;48.650;9.290;2023-04-03T13:23:08;9.40;53.60
57857;DHT22;43683;48.650;9.290;2023-04-03T13:25:40;9.20;54.20
57857;DHT22;43683;48.650;9.290;2023-04-03T13:28:07;8.70;54.50
57857;DHT22;43683;48.650;9.290;2023-04-03T13:30:35;8.40;55.00
57857;DHT22;43683;48.650;9.290;2023-04-03T13:33:20;8.40;55.10
57857;DHT22;43683;48.650;9.290;2023-04-03T13:35:47;8.40;54.90
57857;DHT22;43683;48.650;9.290;2023-04-03T13:40:55;8.40;54.50
57857;DHT22;43683;48.650;9.290;2023-04-03T13:43:24;8.70;54.00
57857;DHT22;43683;48.650;9.290;2023-04-03T13:48:44;9.30;53.20
57857;DHT22;43683;48.650;9.290;2023-04-03T13:56:25;9.60;53.00
57857;DHT22;43683;48.650;9.290;2023-04-03T14:04:19;9.50;53.00
57857;DHT22;43683;48.650;9.290;2023-04-03T14:06:46;9.30;53.40
57857;DHT22;43683;48.650;9.290;2023-04-03T14:09:12;9.40;53.80
57857;DHT22;43683;48.650;9.290;2023-04-03T14:11:38;9.70;53.70
57857;DHT22;43683;48.650;9.290;2023-04-03T14:14:14;9.80;53.00
57857;DHT22;43683;48.650;9.290;2023-04-03T14:16:43;9.80;52.50
57857;DHT22;43683;48.650;9.290;2023-04-03T14:19:29;10.10;52.50
57857;DHT22;43683;48.650;9.290;2023-04-03T14:21:56;10.20;52.00
57857;DHT22;43683;48.650;9.290;2023-04-03T14:24:22;10.00;52.40
57857;DHT22;43683;48.650;9.290;2023-04-03T14:26:51;9.60;52.50
57857;DHT22;43683;48.650;9.290;2023-04-03T14:29:17;9.10;52.70
57857;DHT22;43683;48.650;9.290;2023-04-03T14:31:45;8.70;53.10
57857;DHT22;43683;48.650;9.290;2023-04-03T14:34:11;8.60;53.40
57857;DHT22;43683;48.650;9.290;2023-04-03T14:36:38;8.40;53.10
57857;DHT22;43683;48.650;9.290;2023-04-03T14:39:06;8.40;53.10
57857;DHT22;43683;48.650;9.290;2023-04-03T14:41:32;8.40;53.00
57857;DHT22;43683;48.650;9.290;2023-04-03T14:43:58;8.40;53.00
57857;DHT22;43683;48.650;9.290;2023-04-03T14:46:28;8.50;52.90
57857;DHT22;43683;48.650;9.290;2023-04-03T14:48:55;8.80;52.30
57857;DHT22;43683;48.650;9.290;2023-04-03T14:51:20;9.00;52.00
57857;DHT22;43683;48.650;9.290;2023-04-03T14:53:46;9.30;51.70
57857;DHT22;43683;48.650;9.290;2023-04-03T14:56:16;9.70;51.70
57857;DHT22;43683;48.650;9.290;2023-04-03T14:58:42;9.80;51.40
57857;DHT22;43683;48.650;9.290;2023-04-03T15:01:10;9.50;51.50
57857;DHT22;43683;48.650;9.290;2023-04-03T15:03:36;9.20;52.00
57857;DHT22;43683;48.650;9.290;2023-04-03T15:06:01;8.70;52.00
57857;DHT22;43683;48.650;9.290;2023-04-03T15:08:27;8.30;52.30
57857;DHT22;43683;48.650;9.290;2023-04-03T15:10:56;8.20;52.40
57857;DHT22;43683;48.650;9.290;2023-04-03T15:13:23;8.00;52.60
57857;DHT22;43683;48.650;9.290;2023-04-03T15:15:50;8.00;52.60
57857;DHT22;43683;48.650;9.290;2023-04-03T15:18:22;8.00;52.60
57857;DHT22;43683;48.650;9.290;2023-04-03T15:20:48;8.10;52.40
57857;DHT22;43683;48.650;9.290;2023-04-03T15:23:15;8.10;52.50
57857;DHT22;43683;48.650;9.290;2023-04-03T15:25:42;8.10;52.40
57857;DHT22;43683;48.650;9.290;2023-04-03T15:28:13;8.20;52.60
57857;DHT22;43683;48.650;9.290;2023-04-03T15:30:42;8.10;52.60
57857;DHT22;43683;48.650;9.290;2023-04-03T15:33:08;7.90;52.80
57857;DHT22;43683;48.650;9.290;2023-04-03T15:35:33;7.80;52.80
57857;DHT22;43683;48.650;9.290;2023-04-03T15:37:59;7.80;52.80
57857;DHT22;43683;48.650;9.290;2023-04-03T15:40:24;7.70;52.80
57857;DHT22;43683;48.650;9.290;2023-04-03T15:42:51;7.70;53.10
57857;DHT22;43683;48.650;9.290;2023-04-03T15:45:16;8.20;53.30
57857;DHT22;43683;48.650;9.290;2023-04-03T15:47:42;8.50;52.70
57857;DHT22;43683;48.650;9.290;2023-04-03T15:50:08;8.60;52.20
57857;DHT22;43683;48.650;9.290;2023-04-03T15:52:35;8.90;52.30
57857;DHT22;43683;48.650;9.290;2023-04-03T15:55:00;9.30;52.00
57857;DHT22;43683;48.650;9.290;2023-04-03T15:57:26;9.30;51.80
57857;DHT22;43683;48.650;9.290;2023-04-03T15:59:52;9.10;51.80
57857;DHT22;43683;48.650;9.290;2023-04-03T16:02:18;8.80;52.20
57857;DHT22;43683;48.650;9.290;2023-04-03T16:04:44;8.50;52.40
57857;DHT22;43683;48.650;9.290;2023-04-03T16:07:09;8.10;52.60
57857;DHT22;43683;48.650;9.290;2023-04-03T16:09:36;7.90;53.00
57857;DHT22;43683;48.650;9.290;2023-04-03T16:12:01;7.60;53.20
57857;DHT22;43683;48.650;9.290;2023-04-03T16:14:27;7.40;53.40
57857;DHT22;43683;48.650;9.290;2023-04-03T16:16:55;7.30;53.50
57857;DHT22;43683;48.650;9.290;2023-04-03T16:19:20;7.20;53.70
57857;DHT22;43683;48.650;9.290;2023-04-03T16:21:46;7.10;53.60
57857;DHT22;43683;48.650;9.290;2023-04-03T16:24:12;6.90;53.60
57857;DHT22;43683;48.650;9.290;2023-04-03T16:26:37;6.90;53.60
57857;DHT22;43683;48.650;9.290;2023-04-03T16:29:03;6.90;53.60
57857;DHT22;43683;48.650;9.290;2023-04-03T16:31:29;7.00;53.50
57857;DHT22;43683;48.650;9.290;2023-04-03T16:33:56;6.90;53.40
57857;DHT22;43683;48.650;9.290;2023-04-03T16:36:23;6.80;53.50
57857;DHT22;43683;48.650;9.290;2023-04-03T16:38:48;6.60;53.70
57857;DHT22;43683;48.650;9.290;2023-04-03T16:41:14;6.50;53.90
57857;DHT22;43683;48.650;9.290;2023-04-03T16:43:40;6.80;54.30
57857;DHT22;43683;48.650;9.290;2023-04-03T16:46:05;7.20;53.90
57857;DHT22;43683;48.650;9.290;2023-04-03T16:48:31;7.40;53.30
57857;DHT22;43683;48.650;9.290;2023-04-03T16:50:57;7.30;52.90
57857;DHT22;43683;48.650;9.290;2023-04-03T16:53:24;7.30;52.90
57857;DHT22;43683;48.650;9.290;2023-04-03T16:55:50;7.10;52.80
57857;DHT22;43683;48.650;9.290;2023-04-03T16:58:16;7.00;53.00
57857;DHT22;43683;48.650;9.290;2023-04-03T17:00:42;7.10;53.00
57857;DHT22;43683;48.650;9.290;2023-04-03T17:03:08;7.00;52.80
57857;DHT22;43683;48.650;9.290;2023-04-03T17:05:34;6.90;53.00
57857;DHT22;43683;48.650;9.290;2023-04-03T17:08:00;6.70;53.10
57857;DHT22;43683;48.650;9.290;2023-04-03T17:10:27;6.50;53.40
57857;DHT22;43683;48.650;9.290;2023-04-03T17:12:53;6.20;53.70
57857;DHT22;43683;48.650;9.290;2023-04-03T17:15:19;6.00;54.10
57857;DHT22;43683;48.650;9.290;2023-04-03T17:17:46;5.80;54.30
57857;DHT22;43683;48.650;9.290;2023-04-03T17:20:11;5.80;54.40
57857;DHT22;43683;48.650;9.290;2023-04-03T17:22:37;5.80;54.40
57857;DHT22;43683;48.650;9.290;2023-04-03T17:25:03;5.70;55.00
57857;DHT22;43683;48.650;9.290;2023-04-03T17:27:29;5.70;54.20
57857;DHT22;43683;48.650;9.290;2023-04-03T17:29:54;5.70;54.20
57857;DHT22;43683;48.650;9.290;2023-04-03T17:32:20;5.70;54.20